createdAt,value
2022-12-19T00:00:31.864Z,69.80
2022-12-19T00:01:31.916Z,68.80
2022-12-19T00:02:32.015Z,68.50
2022-12-19T00:03:31.999Z,72.20
2022-12-19T00:04:31.860Z,73.30
2022-12-19T00:05:31.828Z,69.20
2022-12-19T00:06:31.818Z,70.00
2022-12-19T00:07:31.878Z,84.20
2022-12-19T00:08:31.804Z,109.30
2022-12-19T00:09:32.170Z,86.70
2022-12-19T00:10:31.788Z,96.10
2022-12-19T00:11:31.788Z,78.50
2022-12-19T00:12:31.769Z,72.10
2022-12-19T00:13:33.683Z,73.50
2022-12-19T00:14:32.788Z,76.60
2022-12-19T00:15:31.754Z,75.90
2022-12-19T00:16:31.768Z,73.30
2022-12-19T00:17:31.737Z,69.60
2022-12-19T00:18:31.741Z,76.10
2022-12-19T00:19:31.756Z,73.30
2022-12-19T00:20:31.717Z,71.70
2022-12-19T00:21:32.090Z,84.50
2022-12-19T00:22:31.711Z,102.10
2022-12-19T00:23:31.766Z,120.50
2022-12-19T00:24:31.714Z,96.60
2022-12-19T00:25:31.685Z,96.00
2022-12-19T00:26:31.668Z,84.50
2022-12-19T00:27:31.662Z,87.10
2022-12-19T00:28:31.650Z,83.80
2022-12-19T00:29:31.683Z,83.60
2022-12-19T00:30:31.645Z,89.80
2022-12-19T00:31:31.705Z,78.40
2022-12-19T00:32:31.634Z,76.70
2022-12-19T00:33:31.623Z,74.70
2022-12-19T00:34:32.017Z,98.70
2022-12-19T00:35:32.612Z,164.70
2022-12-19T00:36:31.608Z,106.90
2022-12-19T00:37:31.596Z,97.30
2022-12-19T00:38:31.585Z,90.50
2022-12-19T00:39:31.678Z,133.70
2022-12-19T00:40:31.566Z,162.40
2022-12-19T00:41:31.544Z,201.50
2022-12-19T00:42:32.552Z,133.00
2022-12-19T00:43:31.556Z,86.10
2022-12-19T00:44:31.566Z,88.80
2022-12-19T00:45:31.603Z,74.60
2022-12-19T00:46:31.549Z,74.20
2022-12-19T00:47:31.533Z,73.80
2022-12-19T00:48:31.515Z,73.60
2022-12-19T00:49:31.545Z,73.30
2022-12-19T00:50:31.501Z,72.30
2022-12-19T00:51:31.508Z,75.80
2022-12-19T00:52:31.487Z,82.90
2022-12-19T00:53:31.483Z,78.00
2022-12-19T00:54:31.564Z,77.50
2022-12-19T00:55:31.542Z,74.70
2022-12-19T00:56:31.455Z,76.70
2022-12-19T00:57:31.456Z,113.80
2022-12-19T00:58:35.284Z,160.00
2022-12-19T00:59:32.469Z,85.20
2022-12-19T01:00:31.613Z,74.80
2022-12-19T01:01:31.566Z,73.70
2022-12-19T01:02:31.534Z,72.70
2022-12-19T01:03:31.405Z,78.90
2022-12-19T01:04:34.482Z,86.00
2022-12-19T01:05:32.395Z,114.40
2022-12-19T01:06:31.391Z,122.60
2022-12-19T01:07:31.399Z,90.50
2022-12-19T01:08:31.390Z,84.00
2022-12-19T01:09:31.366Z,128.20
2022-12-19T01:10:31.380Z,108.00
2022-12-19T01:11:31.434Z,98.70
2022-12-19T01:12:31.343Z,98.80
2022-12-19T01:13:31.409Z,105.00
2022-12-19T01:14:31.325Z,91.20
2022-12-19T01:15:31.353Z,74.50
2022-12-19T01:16:31.358Z,72.50
2022-12-19T01:17:31.308Z,70.80
2022-12-19T01:18:31.300Z,70.00
2022-12-19T01:19:31.295Z,70.40
2022-12-19T01:20:31.311Z,73.70
2022-12-19T01:21:31.279Z,78.00
2022-12-19T01:22:31.273Z,73.20
2022-12-19T01:23:31.282Z,75.80
2022-12-19T01:24:31.257Z,76.20
2022-12-19T01:25:31.289Z,75.60
2022-12-19T01:26:31.246Z,75.10
2022-12-19T01:27:31.316Z,76.20
2022-12-19T01:28:31.233Z,76.10
2022-12-19T01:29:31.219Z,74.70
2022-12-19T01:30:31.245Z,77.20
2022-12-19T01:31:31.226Z,76.10
2022-12-19T01:32:31.200Z,79.10
2022-12-19T01:33:31.195Z,76.20
2022-12-19T01:34:31.191Z,78.80
2022-12-19T01:35:31.230Z,76.60
2022-12-19T01:36:31.175Z,78.20
2022-12-19T01:37:31.169Z,79.80
2022-12-19T01:38:31.163Z,77.10
2022-12-19T01:39:31.185Z,80.00
2022-12-19T01:40:31.175Z,74.80
2022-12-19T01:41:31.137Z,72.80
2022-12-19T01:42:31.140Z,76.00
2022-12-19T01:43:31.202Z,73.80
2022-12-19T01:44:31.132Z,78.40
2022-12-19T01:45:34.275Z,79.40
2022-12-19T01:46:32.161Z,75.70
2022-12-19T01:47:31.101Z,79.10
2022-12-19T01:48:31.091Z,78.20
2022-12-19T01:49:31.081Z,77.50
2022-12-19T01:50:31.102Z,78.20
2022-12-19T01:51:31.072Z,78.40
2022-12-19T01:52:31.066Z,80.00
2022-12-19T01:53:31.066Z,79.30
2022-12-19T01:54:31.061Z,78.30
2022-12-19T01:55:31.088Z,79.90
2022-12-19T01:56:31.003Z,81.30
2022-12-19T01:57:30.981Z,78.40
2022-12-19T01:58:31.995Z,76.90
2022-12-19T01:59:30.980Z,77.90
2022-12-19T02:00:31.011Z,80.40
2022-12-19T02:01:31.076Z,79.40
2022-12-19T02:02:31.051Z,77.30
2022-12-19T02:03:30.953Z,79.90
2022-12-19T02:04:32.249Z,80.60
2022-12-19T02:05:30.975Z,78.20
2022-12-19T02:06:30.939Z,81.30
2022-12-19T02:07:30.929Z,74.80
2022-12-19T02:08:30.915Z,79.90
2022-12-19T02:09:30.912Z,80.50
2022-12-19T02:10:30.939Z,89.70
2022-12-19T02:11:30.908Z,81.50
2022-12-19T02:12:30.890Z,96.00
2022-12-19T02:13:30.887Z,87.80
2022-12-19T02:14:30.886Z,80.90
2022-12-19T02:15:30.979Z,82.80
2022-12-19T02:16:30.920Z,78.80
2022-12-19T02:17:30.880Z,81.60
2022-12-19T02:18:30.863Z,79.20
2022-12-19T02:19:30.843Z,81.20
2022-12-19T02:20:30.860Z,81.00
2022-12-19T02:21:30.838Z,80.10
2022-12-19T02:22:30.822Z,89.30
2022-12-19T02:23:30.812Z,81.10
2022-12-19T02:24:30.823Z,83.70
2022-12-19T02:25:30.834Z,80.70
2022-12-19T02:26:30.800Z,78.60
2022-12-19T02:27:31.834Z,77.50
2022-12-19T02:28:30.787Z,77.40
2022-12-19T02:29:30.779Z,74.80
2022-12-19T02:30:30.802Z,77.00
2022-12-19T02:31:30.900Z,75.70
2022-12-19T02:32:30.773Z,78.40
2022-12-19T02:33:30.757Z,79.60
2022-12-19T02:34:30.754Z,77.90
2022-12-19T02:35:30.755Z,81.80
2022-12-19T02:36:30.762Z,82.80
2022-12-19T02:37:30.855Z,81.00
2022-12-19T02:38:30.729Z,82.30
2022-12-19T02:39:30.715Z,82.80
2022-12-19T02:40:30.703Z,96.20
2022-12-19T02:41:30.740Z,90.40
2022-12-19T02:42:30.722Z,90.40
2022-12-19T02:43:30.712Z,91.50
2022-12-19T02:44:30.683Z,86.70
2022-12-19T02:45:30.681Z,84.50
2022-12-19T02:46:30.730Z,89.80
2022-12-19T02:47:30.736Z,84.00
2022-12-19T02:48:30.648Z,84.60
2022-12-19T02:49:31.348Z,82.40
2022-12-19T02:50:30.688Z,85.50
2022-12-19T02:51:30.665Z,83.90
2022-12-19T02:52:30.628Z,84.30
2022-12-19T02:53:30.617Z,87.10
2022-12-19T02:54:30.617Z,91.60
2022-12-19T02:55:30.602Z,85.50
2022-12-19T02:56:30.630Z,83.30
2022-12-19T02:57:30.605Z,83.00
2022-12-19T02:58:30.590Z,84.80
2022-12-19T02:59:30.592Z,79.00
2022-12-19T03:00:30.578Z,80.50
2022-12-19T03:01:30.692Z,80.20
2022-12-19T03:02:30.669Z,79.80
2022-12-19T03:03:30.697Z,81.10
2022-12-19T03:04:30.549Z,78.40
2022-12-19T03:05:30.542Z,76.10
2022-12-19T03:06:30.557Z,71.70
2022-12-19T03:07:30.558Z,70.90
2022-12-19T03:08:30.524Z,71.00
2022-12-19T03:09:30.515Z,74.40
2022-12-19T03:10:30.513Z,69.00
2022-12-19T03:11:30.531Z,71.20
2022-12-19T03:12:30.514Z,71.60
2022-12-19T03:13:30.486Z,69.10
2022-12-19T03:14:30.489Z,74.20
2022-12-19T03:15:30.472Z,70.70
2022-12-19T03:16:30.558Z,70.30
2022-12-19T03:17:30.483Z,67.60
2022-12-19T03:18:30.449Z,71.30
2022-12-19T03:19:30.528Z,75.60
2022-12-19T03:20:30.432Z,71.90
2022-12-19T03:21:30.460Z,72.80
2022-12-19T03:22:30.424Z,71.30
2022-12-19T03:23:30.415Z,73.20
2022-12-19T03:24:30.409Z,70.60
2022-12-19T03:25:30.412Z,70.70
2022-12-19T03:26:30.425Z,74.50
2022-12-19T03:27:30.406Z,73.80
2022-12-19T03:28:30.408Z,72.10
2022-12-19T03:29:30.375Z,73.00
2022-12-19T03:30:30.380Z,73.60
2022-12-19T03:31:30.401Z,72.00
2022-12-19T03:32:30.361Z,73.10
2022-12-19T03:33:30.358Z,76.40
2022-12-19T03:34:30.346Z,77.30
2022-12-19T03:35:30.423Z,77.20
2022-12-19T03:36:30.353Z,74.30
2022-12-19T03:37:30.320Z,73.00
2022-12-19T03:38:30.315Z,73.10
2022-12-19T03:39:30.326Z,73.80
2022-12-19T03:40:30.304Z,76.80
2022-12-19T03:41:30.428Z,75.60
2022-12-19T03:42:30.310Z,79.30
2022-12-19T03:43:30.274Z,75.80
2022-12-19T03:44:30.278Z,77.40
2022-12-19T03:45:30.258Z,76.30
2022-12-19T03:46:30.311Z,77.70
2022-12-19T03:47:30.273Z,81.70
2022-12-19T03:48:30.247Z,84.50
2022-12-19T03:49:30.245Z,81.80
2022-12-19T03:50:30.231Z,77.90
2022-12-19T03:51:30.296Z,83.20
2022-12-19T03:52:30.242Z,78.90
2022-12-19T03:53:30.212Z,83.90
2022-12-19T03:54:30.201Z,79.60
2022-12-19T03:55:30.195Z,82.30
2022-12-19T03:56:30.189Z,84.80
2022-12-19T03:57:30.216Z,84.10
2022-12-19T03:58:30.205Z,79.80
2022-12-19T03:59:30.166Z,84.90
2022-12-19T04:00:30.162Z,81.20
2022-12-19T04:01:30.258Z,79.70
2022-12-19T04:02:30.195Z,76.50
2022-12-19T04:03:30.162Z,76.10
2022-12-19T04:04:30.132Z,74.90
2022-12-19T04:05:30.124Z,76.10
2022-12-19T04:06:30.127Z,76.30
2022-12-19T04:07:30.205Z,81.10
2022-12-19T04:08:30.100Z,81.60
2022-12-19T04:09:30.091Z,84.20
2022-12-19T04:10:30.096Z,89.10
2022-12-19T04:11:30.080Z,87.40
2022-12-19T04:12:30.097Z,89.80
2022-12-19T04:13:30.069Z,83.90
2022-12-19T04:14:30.057Z,80.50
2022-12-19T04:15:30.110Z,78.50
2022-12-19T04:16:30.055Z,76.40
2022-12-19T04:17:30.063Z,78.90
2022-12-19T04:18:30.029Z,73.50
2022-12-19T04:19:30.039Z,79.90
2022-12-19T04:20:30.032Z,75.30
2022-12-19T04:21:30.007Z,75.60
2022-12-19T04:22:30.042Z,78.00
2022-12-19T04:23:30.072Z,76.70
2022-12-19T04:24:29.990Z,74.10
2022-12-19T04:25:29.976Z,78.50
2022-12-19T04:26:29.984Z,80.00
2022-12-19T04:27:30.001Z,77.70
2022-12-19T04:28:29.956Z,80.50
2022-12-19T04:29:29.955Z,79.10
2022-12-19T04:30:29.964Z,80.80
2022-12-19T04:31:30.973Z,77.50
2022-12-19T04:32:30.066Z,74.70
2022-12-19T04:33:29.928Z,78.90
2022-12-19T04:34:29.923Z,78.90
2022-12-19T04:35:29.943Z,81.60
2022-12-19T04:36:29.905Z,81.40
2022-12-19T04:37:29.921Z,77.30
2022-12-19T04:38:29.896Z,78.00
2022-12-19T04:39:29.958Z,78.50
2022-12-19T04:40:29.880Z,78.10
2022-12-19T04:41:29.873Z,78.50
2022-12-19T04:42:29.893Z,80.80
2022-12-19T04:43:29.848Z,83.70
2022-12-19T04:44:29.843Z,82.10
2022-12-19T04:45:29.853Z,81.60
2022-12-19T04:46:29.870Z,77.90
2022-12-19T04:47:29.893Z,75.90
2022-12-19T04:48:29.821Z,77.40
2022-12-19T04:49:29.810Z,72.00
2022-12-19T04:50:29.822Z,69.30
2022-12-19T04:51:29.794Z,68.20
2022-12-19T04:52:30.830Z,69.30
2022-12-19T04:53:29.782Z,64.40
2022-12-19T04:54:29.775Z,61.80
2022-12-19T04:55:29.845Z,65.50
2022-12-19T04:56:29.768Z,63.40
2022-12-19T04:57:29.794Z,65.60
2022-12-19T04:58:29.743Z,64.80
2022-12-19T04:59:30.743Z,66.60
2022-12-19T05:00:29.754Z,62.30
2022-12-19T05:01:29.871Z,63.80
2022-12-19T05:02:29.966Z,61.20
2022-12-19T05:03:29.769Z,61.80
2022-12-19T05:04:29.709Z,65.80
2022-12-19T05:05:29.730Z,63.40
2022-12-19T05:06:29.689Z,61.10
2022-12-19T05:07:29.695Z,62.50
2022-12-19T05:08:29.714Z,59.60
2022-12-19T05:09:29.678Z,62.00
2022-12-19T05:10:29.664Z,62.50
2022-12-19T05:11:29.745Z,65.40
2022-12-19T05:12:29.657Z,59.90
2022-12-19T05:13:29.672Z,62.80
2022-12-19T05:14:29.655Z,66.50
2022-12-19T05:15:29.651Z,62.80
2022-12-19T05:16:29.645Z,64.80
2022-12-19T05:17:29.618Z,66.00
2022-12-19T05:18:29.635Z,60.20
2022-12-19T05:19:29.595Z,65.50
2022-12-19T05:20:29.598Z,63.80
2022-12-19T05:21:29.587Z,61.70
2022-12-19T05:22:29.578Z,64.90
2022-12-19T05:23:29.636Z,67.60
2022-12-19T05:24:29.564Z,67.50
2022-12-19T05:25:29.560Z,66.30
2022-12-19T05:26:29.552Z,69.40
2022-12-19T05:27:29.613Z,68.50
2022-12-19T05:28:29.557Z,67.20
2022-12-19T05:29:29.529Z,68.60
2022-12-19T05:30:29.520Z,70.00
2022-12-19T05:31:29.586Z,67.20
2022-12-19T05:32:29.506Z,69.60
2022-12-19T05:33:29.523Z,65.80
2022-12-19T05:34:29.493Z,69.40
2022-12-19T05:35:29.473Z,59.80
2022-12-19T05:36:32.572Z,61.40
2022-12-19T05:37:30.479Z,63.70
2022-12-19T05:38:29.503Z,63.20
2022-12-19T05:39:29.461Z,66.50
2022-12-19T05:40:29.447Z,70.20
2022-12-19T05:41:29.441Z,69.10
2022-12-19T05:42:29.434Z,72.30
2022-12-19T05:43:29.533Z,64.80
2022-12-19T05:44:29.428Z,63.30
2022-12-19T05:45:29.415Z,62.50
2022-12-19T05:46:29.418Z,64.00
2022-12-19T05:47:29.401Z,68.20
2022-12-19T05:48:29.428Z,62.30
2022-12-19T05:49:29.388Z,67.30
2022-12-19T05:50:29.373Z,66.00
2022-12-19T05:51:29.367Z,69.60
2022-12-19T05:52:29.357Z,67.70
2022-12-19T05:53:29.375Z,64.50
2022-12-19T05:54:29.347Z,70.50
2022-12-19T05:55:29.341Z,75.90
2022-12-19T05:56:29.348Z,76.00
2022-12-19T05:57:29.328Z,72.90
2022-12-19T05:58:29.354Z,78.90
2022-12-19T05:59:29.320Z,76.20
2022-12-19T06:00:29.315Z,76.60
2022-12-19T06:01:29.343Z,73.10
2022-12-19T06:02:29.430Z,79.00
2022-12-19T06:03:29.367Z,77.00
2022-12-19T06:04:29.324Z,69.40
2022-12-19T06:05:29.264Z,69.70
2022-12-19T06:06:29.257Z,70.00
2022-12-19T06:07:29.245Z,71.40
2022-12-19T06:08:29.238Z,72.30
2022-12-19T06:09:29.260Z,72.70
2022-12-19T06:10:29.248Z,72.50
2022-12-19T06:11:29.235Z,79.50
2022-12-19T06:12:29.218Z,79.20
2022-12-19T06:13:29.208Z,74.80
2022-12-19T06:14:29.220Z,81.50
2022-12-19T06:15:29.264Z,75.30
2022-12-19T06:16:29.257Z,71.70
2022-12-19T06:17:29.183Z,76.00
2022-12-19T06:18:29.193Z,74.70
2022-12-19T06:19:29.193Z,76.20
2022-12-19T06:20:29.168Z,80.90
2022-12-19T06:21:29.150Z,77.40
2022-12-19T06:22:29.136Z,75.40
2022-12-19T06:23:29.139Z,73.10
2022-12-19T06:24:29.172Z,75.70
2022-12-19T06:25:29.120Z,77.20
2022-12-19T06:26:29.123Z,76.70
2022-12-19T06:27:29.115Z,76.00
2022-12-19T06:28:29.095Z,80.10
2022-12-19T06:29:29.179Z,81.50
2022-12-19T06:30:29.088Z,81.30
2022-12-19T06:31:29.241Z,80.50
2022-12-19T06:32:31.354Z,82.80
2022-12-19T06:33:30.059Z,79.90
2022-12-19T06:35:02.263Z,82.20
2022-12-19T06:35:31.051Z,81.30
2022-12-19T06:36:29.042Z,79.80
2022-12-19T06:37:29.039Z,79.40
2022-12-19T06:38:29.022Z,79.40
2022-12-19T06:39:29.055Z,82.60
2022-12-19T06:40:29.025Z,79.30
2022-12-19T06:41:29.015Z,79.20
2022-12-19T06:42:29.002Z,80.20
2022-12-19T06:43:29.007Z,78.50
2022-12-19T06:44:29.013Z,78.40
2022-12-19T06:45:29.045Z,82.60
2022-12-19T06:46:28.973Z,81.80
2022-12-19T06:47:29.097Z,78.20
2022-12-19T06:48:28.960Z,78.30
2022-12-19T06:49:28.976Z,76.00
2022-12-19T06:50:28.940Z,76.10
2022-12-19T06:51:28.932Z,74.70
2022-12-19T06:52:28.925Z,85.70
2022-12-19T06:53:28.926Z,74.70
2022-12-19T06:54:28.937Z,76.50
2022-12-19T06:55:28.899Z,75.10
2022-12-19T06:56:28.899Z,75.80
2022-12-19T06:57:28.899Z,77.90
2022-12-19T06:58:28.880Z,77.20
2022-12-19T06:59:28.900Z,71.70
2022-12-19T07:00:28.872Z,69.50
2022-12-19T07:01:28.901Z,73.60
2022-12-19T07:02:28.935Z,74.90
2022-12-19T07:03:28.919Z,70.60
2022-12-19T07:04:28.864Z,72.60
2022-12-19T07:05:28.829Z,70.50
2022-12-19T07:06:28.828Z,69.90
2022-12-19T07:07:28.867Z,69.60
2022-12-19T07:08:28.813Z,71.40
2022-12-19T07:09:28.827Z,67.80
2022-12-19T07:10:28.812Z,67.90
2022-12-19T07:11:28.788Z,66.60
2022-12-19T07:12:28.783Z,67.60
2022-12-19T07:13:28.779Z,68.40
2022-12-19T07:14:28.796Z,67.30
2022-12-19T07:15:28.763Z,65.80
2022-12-19T07:16:28.783Z,66.00
2022-12-19T07:17:28.743Z,66.80
2022-12-19T07:18:28.733Z,61.60
2022-12-19T07:19:28.846Z,65.30
2022-12-19T07:20:28.717Z,62.80
2022-12-19T07:21:28.736Z,61.90
2022-12-19T07:22:28.711Z,60.70
2022-12-19T07:23:28.694Z,62.60
2022-12-19T07:24:28.733Z,64.00
2022-12-19T07:25:28.684Z,61.30
2022-12-19T07:26:28.677Z,63.40
2022-12-19T07:27:35.497Z,58.40
2022-12-19T07:28:30.666Z,64.70
2022-12-19T07:29:28.683Z,65.90
2022-12-19T07:30:28.662Z,63.10
2022-12-19T07:31:28.787Z,59.80
2022-12-19T07:32:28.630Z,64.70
2022-12-19T07:33:28.644Z,59.50
2022-12-19T07:34:28.650Z,60.20
2022-12-19T07:35:28.724Z,63.10
2022-12-19T07:36:28.602Z,60.40
2022-12-19T07:37:28.606Z,60.90
2022-12-19T07:38:28.590Z,62.10
2022-12-19T07:39:28.612Z,66.10
2022-12-19T07:40:28.600Z,61.60
2022-12-19T07:41:28.573Z,59.40
2022-12-19T07:42:32.501Z,60.60
2022-12-19T07:43:29.653Z,60.90
2022-12-19T07:44:28.599Z,63.00
2022-12-19T07:45:28.580Z,61.90
2022-12-19T07:46:28.528Z,63.30
2022-12-19T07:47:28.524Z,64.00
2022-12-19T07:48:28.521Z,59.20
2022-12-19T07:49:28.532Z,57.30
2022-12-19T07:50:28.588Z,61.50
2022-12-19T07:51:28.599Z,57.40
2022-12-19T07:52:28.488Z,60.30
2022-12-19T07:53:28.520Z,59.10
2022-12-19T07:54:28.476Z,61.70
2022-12-19T07:55:28.484Z,62.40
2022-12-19T07:56:28.458Z,59.70
2022-12-19T07:57:28.475Z,60.50
2022-12-19T07:58:28.446Z,63.20
2022-12-19T07:59:32.300Z,63.50
2022-12-19T08:00:30.465Z,63.40
2022-12-19T08:02:29.536Z,62.10
2022-12-19T08:02:40.954Z,62.00
2022-12-19T08:03:28.488Z,65.30
2022-12-19T08:04:28.406Z,70.20
2022-12-19T08:05:28.411Z,71.30
2022-12-19T08:06:28.380Z,67.10
2022-12-19T08:07:28.454Z,96.00
2022-12-19T08:08:28.377Z,94.60
2022-12-19T08:09:28.388Z,95.80
2022-12-19T08:10:28.438Z,75.60
2022-12-19T08:11:28.337Z,62.90
2022-12-19T08:12:28.333Z,60.40
2022-12-19T08:13:31.134Z,62.50
2022-12-19T08:14:30.314Z,65.40
2022-12-19T08:15:28.327Z,61.30
2022-12-19T08:16:28.356Z,61.00
2022-12-19T08:17:28.356Z,58.10
2022-12-19T08:18:28.294Z,60.10
2022-12-19T08:19:28.283Z,58.70
2022-12-19T08:20:28.284Z,61.90
2022-12-19T08:21:28.268Z,58.70
2022-12-19T08:22:28.273Z,58.00
2022-12-19T08:23:28.342Z,57.30
2022-12-19T08:24:28.238Z,59.10
2022-12-19T08:25:28.256Z,65.00
2022-12-19T08:26:31.275Z,70.90
2022-12-19T08:27:30.215Z,74.10
2022-12-19T08:28:28.204Z,76.10
2022-12-19T08:29:28.202Z,60.90
2022-12-19T08:30:28.390Z,75.50
2022-12-19T08:31:28.189Z,63.20
2022-12-19T08:32:28.176Z,62.20
2022-12-19T08:33:28.169Z,62.90
2022-12-19T08:34:28.155Z,59.60
2022-12-19T08:35:28.178Z,60.60
2022-12-19T08:36:28.151Z,63.40
2022-12-19T08:37:28.134Z,63.10
2022-12-19T08:38:28.127Z,63.20
2022-12-19T08:39:28.203Z,66.00
2022-12-19T08:40:28.143Z,63.90
2022-12-19T08:41:28.157Z,64.90
2022-12-19T08:42:28.106Z,66.90
2022-12-19T08:43:28.097Z,66.30
2022-12-19T08:44:28.081Z,65.40
2022-12-19T08:45:28.106Z,59.50
2022-12-19T08:46:28.127Z,55.40
2022-12-19T08:47:28.065Z,57.40
2022-12-19T08:48:28.062Z,60.10
2022-12-19T08:49:28.048Z,59.10
2022-12-19T08:50:28.067Z,57.50
2022-12-19T08:51:28.025Z,60.10
2022-12-19T08:52:28.031Z,60.40
2022-12-19T08:53:28.028Z,57.10
2022-12-19T08:54:28.006Z,55.80
2022-12-19T08:55:28.163Z,57.70
2022-12-19T08:56:27.990Z,56.80
2022-12-19T08:57:27.980Z,60.20
2022-12-19T08:58:27.975Z,58.50
2022-12-19T08:59:31.508Z,58.70
2022-12-19T09:00:27.995Z,57.40
2022-12-19T09:01:28.001Z,56.10
2022-12-19T09:02:28.126Z,56.80
2022-12-19T09:03:32.050Z,58.10
2022-12-19T09:05:55.470Z,58.70
2022-12-19T09:06:03.649Z,59.70
2022-12-19T09:06:29.224Z,59.70
2022-12-19T09:07:27.924Z,60.60
2022-12-19T09:08:27.905Z,61.60
2022-12-19T09:09:27.898Z,59.70
2022-12-19T09:10:27.913Z,62.70
2022-12-19T09:11:28.016Z,58.20
2022-12-19T09:12:27.873Z,60.40
2022-12-19T09:13:27.870Z,57.60
2022-12-19T09:14:27.868Z,62.00
2022-12-19T09:15:27.893Z,62.10
2022-12-19T09:16:28.025Z,61.40
2022-12-19T09:17:27.877Z,61.70
2022-12-19T09:18:27.835Z,57.00
2022-12-19T09:19:27.856Z,59.40
2022-12-19T09:20:27.851Z,59.10
2022-12-19T09:21:27.853Z,57.00
2022-12-19T09:22:29.494Z,62.90
2022-12-19T09:23:27.796Z,60.40
2022-12-19T09:24:27.790Z,59.40
2022-12-19T09:25:27.815Z,58.40
2022-12-19T09:26:27.781Z,59.00
2022-12-19T09:27:28.835Z,54.90
2022-12-19T09:28:28.322Z,60.50
2022-12-19T09:29:33.538Z,57.80
2022-12-19T09:30:30.014Z,59.40
2022-12-19T09:31:27.784Z,55.50
2022-12-19T09:32:27.739Z,56.60
2022-12-19T09:33:27.726Z,59.00
2022-12-19T09:34:36.956Z,58.80
2022-12-19T09:35:30.664Z,56.60
2022-12-19T09:36:28.708Z,58.70
2022-12-19T09:37:27.685Z,60.50
2022-12-19T09:38:27.693Z,60.00
2022-12-19T09:39:27.697Z,60.70
2022-12-19T09:40:27.703Z,58.70
2022-12-19T09:41:27.668Z,57.20
2022-12-19T09:42:27.660Z,60.60
2022-12-19T09:43:27.726Z,56.80
2022-12-19T09:44:27.696Z,60.80
2022-12-19T09:45:31.607Z,60.80
2022-12-19T09:46:28.707Z,60.50
2022-12-19T09:47:27.604Z,59.90
2022-12-19T09:48:27.618Z,61.70
2022-12-19T09:49:27.601Z,61.10
2022-12-19T09:50:27.612Z,58.60
2022-12-19T09:51:27.625Z,59.30
2022-12-19T09:52:29.793Z,59.90
2022-12-19T09:53:28.567Z,59.60
2022-12-19T09:54:27.560Z,58.80
2022-12-19T09:55:27.571Z,61.50
2022-12-19T09:56:27.576Z,62.90
2022-12-19T09:57:27.546Z,60.00
2022-12-19T09:58:27.576Z,64.60
2022-12-19T09:59:28.277Z,63.50
2022-12-19T10:00:28.513Z,61.00
2022-12-19T10:01:27.707Z,63.20
2022-12-19T10:02:27.732Z,60.40
2022-12-19T10:03:27.561Z,62.20
2022-12-19T10:04:27.477Z,60.80
2022-12-19T10:06:43.272Z,57.90
2022-12-19T10:07:08.829Z,61.90
2022-12-19T10:07:53.015Z,65.20
2022-12-19T10:08:29.454Z,61.00
2022-12-19T10:10:50.378Z,61.20
2022-12-19T10:12:36.376Z,63.60
2022-12-19T10:12:40.176Z,62.10
2022-12-19T10:12:45.316Z,60.20
2022-12-19T10:13:28.411Z,60.30
2022-12-19T10:14:27.406Z,58.60
2022-12-19T10:15:27.474Z,61.10
2022-12-19T10:16:27.455Z,62.70
2022-12-19T10:17:27.393Z,63.20
2022-12-19T10:18:27.381Z,59.70
2022-12-19T10:19:27.378Z,61.90
2022-12-19T10:20:27.399Z,62.30
2022-12-19T10:21:50.757Z,59.20
2022-12-19T10:22:29.351Z,60.80
2022-12-19T10:23:27.357Z,60.20
2022-12-19T10:24:33.200Z,60.10
2022-12-19T10:25:29.343Z,65.00
2022-12-19T10:26:27.402Z,69.10
2022-12-19T10:27:27.310Z,66.40
2022-12-19T10:28:27.326Z,67.80
2022-12-19T10:29:27.323Z,65.10
2022-12-19T10:30:27.840Z,64.20
2022-12-19T10:31:27.476Z,68.00
2022-12-19T10:32:27.282Z,65.10
2022-12-19T10:33:27.350Z,64.20
2022-12-19T10:34:27.263Z,65.80
2022-12-19T10:35:27.253Z,65.90
2022-12-19T10:37:03.950Z,65.70
2022-12-19T10:37:40.683Z,65.70
2022-12-19T10:38:29.224Z,65.80
2022-12-19T10:39:27.213Z,67.40
2022-12-19T10:40:27.918Z,61.60
2022-12-19T10:41:27.235Z,60.10
2022-12-19T10:42:27.201Z,59.50
2022-12-19T10:43:33.753Z,64.40
2022-12-19T10:44:29.209Z,62.60
2022-12-19T10:45:27.176Z,62.10
2022-12-19T10:46:27.231Z,67.00
2022-12-19T10:47:27.240Z,64.40
2022-12-19T10:48:30.520Z,63.90
2022-12-19T10:49:27.851Z,70.50
2022-12-19T10:50:27.287Z,67.40
2022-12-19T10:51:27.181Z,63.00
2022-12-19T10:52:27.136Z,65.70
2022-12-19T10:53:27.107Z,61.40
2022-12-19T10:54:33.437Z,63.10
2022-12-19T10:55:29.110Z,61.00
2022-12-19T10:56:33.224Z,63.10
2022-12-19T10:57:28.086Z,62.10
2022-12-19T10:58:27.121Z,59.30
2022-12-19T10:59:27.061Z,62.10
2022-12-19T11:00:27.059Z,66.60
2022-12-19T11:01:28.264Z,72.30
2022-12-19T11:02:27.173Z,70.60
2022-12-19T11:03:27.277Z,64.80
2022-12-19T11:04:27.179Z,79.70
2022-12-19T11:05:27.160Z,87.90
2022-12-19T11:06:27.026Z,76.00
2022-12-19T11:07:27.022Z,71.50
2022-12-19T11:08:27.010Z,76.30
2022-12-19T11:09:27.008Z,75.40
2022-12-19T11:11:19.298Z,72.10
2022-12-19T11:12:35.562Z,75.90
2022-12-19T11:16:39.709Z,81.00
2022-12-19T11:18:44.538Z,73.40
2022-12-19T11:19:01.776Z,76.20
2022-12-19T11:19:13.259Z,68.00
2022-12-19T11:22:26.453Z,63.60
2022-12-19T11:24:21.305Z,64.20
2022-12-19T11:27:17.271Z,68.40
2022-12-19T11:29:15.062Z,65.70
2022-12-19T11:29:25.558Z,66.40
2022-12-19T11:29:25.719Z,63.00
2022-12-19T11:29:43.950Z,63.40
2022-12-19T11:29:44.962Z,64.70
2022-12-19T11:30:35.950Z,62.80
2022-12-19T11:30:47.106Z,64.30
2022-12-19T11:30:48.175Z,61.20
2022-12-19T11:30:48.365Z,64.70
2022-12-19T11:30:59.581Z,68.30
2022-12-19T11:31:51.444Z,63.60
2022-12-19T11:32:40.274Z,67.90
2022-12-19T11:33:28.886Z,67.40
2022-12-19T11:34:26.802Z,63.40
2022-12-19T11:35:37.173Z,66.40
2022-12-19T11:36:27.788Z,66.40
2022-12-19T11:37:26.824Z,66.50
2022-12-19T11:38:26.791Z,64.70
2022-12-19T11:39:26.765Z,68.40
2022-12-19T11:40:26.768Z,66.50
2022-12-19T11:41:26.757Z,67.10
2022-12-19T11:42:26.787Z,69.20
2022-12-19T11:43:43.785Z,67.20
2022-12-19T11:44:28.747Z,66.70
2022-12-19T11:45:26.716Z,68.40
2022-12-19T11:46:26.709Z,66.40
2022-12-19T11:47:26.726Z,66.90
2022-12-19T11:48:26.718Z,68.10
2022-12-19T11:49:26.746Z,69.70
2022-12-19T11:50:26.688Z,65.20
2022-12-19T11:51:26.755Z,66.90
2022-12-19T11:53:28.676Z,67.70
2022-12-19T11:54:26.646Z,67.70
2022-12-19T11:55:26.643Z,64.90
2022-12-19T11:56:26.633Z,62.80
2022-12-19T11:57:26.665Z,64.40
2022-12-19T11:58:26.626Z,62.50
2022-12-19T11:59:26.617Z,64.20
2022-12-19T12:00:26.613Z,62.60
2022-12-19T12:01:26.650Z,65.80
2022-12-19T12:02:26.618Z,64.50
2022-12-19T12:03:26.667Z,65.40
2022-12-19T12:04:26.622Z,63.80
2022-12-19T12:05:26.573Z,61.70
2022-12-19T12:06:31.265Z,65.00
2022-12-19T12:08:00.988Z,65.20
2022-12-19T12:11:11.742Z,64.10
2022-12-19T12:12:29.665Z,63.80
2022-12-19T12:14:35.511Z,64.60
2022-12-19T12:15:00.889Z,62.70
2022-12-19T12:21:17.197Z,62.60
2022-12-19T12:21:52.010Z,64.60
2022-12-19T12:25:05.397Z,61.80
2022-12-19T12:29:56.814Z,61.00
2022-12-19T12:31:00.803Z,61.10
2022-12-19T12:31:10.967Z,58.30
2022-12-19T12:31:11.209Z,61.10
2022-12-19T12:31:18.382Z,59.70
2022-12-19T12:31:23.616Z,58.10
2022-12-19T12:31:27.600Z,65.70
2022-12-19T12:31:43.411Z,59.00
2022-12-19T12:31:48.514Z,57.20
2022-12-19T12:31:48.721Z,58.90
2022-12-19T12:31:50.267Z,59.20
2022-12-19T12:31:52.361Z,64.40
2022-12-19T12:31:52.366Z,58.80
2022-12-19T12:31:52.736Z,57.90
2022-12-19T12:31:59.017Z,56.10
2022-12-19T12:35:09.576Z,55.90
2022-12-19T12:35:35.106Z,59.50
2022-12-19T12:35:40.929Z,56.80
2022-12-19T12:35:41.440Z,58.70
2022-12-19T12:38:29.301Z,59.30
2022-12-19T12:39:33.355Z,56.40
2022-12-19T12:40:28.318Z,59.80
2022-12-19T12:41:26.302Z,56.40
2022-12-19T12:42:26.293Z,55.70
2022-12-19T12:43:26.318Z,56.10
2022-12-19T12:44:32.568Z,55.60
2022-12-19T12:45:27.265Z,55.50
2022-12-19T12:46:26.347Z,55.70
2022-12-19T12:47:26.251Z,57.50
2022-12-19T12:48:26.278Z,57.80
2022-12-19T12:49:26.249Z,55.60
2022-12-19T12:50:26.230Z,55.20
2022-12-19T12:51:26.224Z,58.20
2022-12-19T12:52:26.217Z,58.30
2022-12-19T12:53:26.232Z,56.00
2022-12-19T12:54:26.212Z,55.40
2022-12-19T12:55:26.197Z,57.60
2022-12-19T12:56:26.199Z,57.60
2022-12-19T12:57:26.185Z,56.30
2022-12-19T12:58:26.214Z,57.80
2022-12-19T12:59:26.177Z,57.60